sensor_id;sensor_type;location;lat;lon;timestamp;temperature;humidity
60909;DHT22;46780;48.128;-1.704;2022-09-01T00:01:25;21.90;97.90
60909;DHT22;46780;48.128;-1.704;2022-09-01T00:03:54;21.90;97.70
60909;DHT22;46780;48.128;-1.704;2022-09-01T00:06:22;21.90;97.40
60909;DHT22;46780;48.128;-1.704;2022-09-01T00:08:49;21.90;97.40
60909;DHT22;46780;48.128;-1.704;2022-09-01T00:11:17;21.90;97.30
60909;DHT22;46780;48.128;-1.704;2022-09-01T00:13:44;22.00;97.30
60909;DHT22;46780;48.128;-1.704;2022-09-01T00:16:10;21.90;96.90
60909;DHT22;46780;48.128;-1.704;2022-09-01T00:18:37;22.00;96.80
60909;DHT22;46780;48.128;-1.704;2022-09-01T00:21:05;21.90;96.60
60909;DHT22;46780;48.128;-1.704;2022-09-01T00:23:31;22.00;96.50
60909;DHT22;46780;48.128;-1.704;2022-09-01T00:25:58;22.00;96.30
60909;DHT22;46780;48.128;-1.704;2022-09-01T00:28:25;21.90;95.80
60909;DHT22;46780;48.128;-1.704;2022-09-01T00:30:51;21.90;95.50
60909;DHT22;46780;48.128;-1.704;2022-09-01T00:33:18;21.90;95.30
60909;DHT22;46780;48.128;-1.704;2022-09-01T00:35:44;21.90;95.10
60909;DHT22;46780;48.128;-1.704;2022-09-01T00:38:12;21.90;95.10
60909;DHT22;46780;48.128;-1.704;2022-09-01T00:40:39;21.90;95.10
60909;DHT22;46780;48.128;-1.704;2022-09-01T00:43:22;21.90;95.10
60909;DHT22;46780;48.128;-1.704;2022-09-01T00:45:49;21.90;95.30
60909;DHT22;46780;48.128;-1.704;2022-09-01T00:48:15;21.90;95.10
60909;DHT22;46780;48.128;-1.704;2022-09-01T00:50:42;21.80;95.00
60909;DHT22;46780;48.128;-1.704;2022-09-01T00:53:09;21.80;95.00
60909;DHT22;46780;48.128;-1.704;2022-09-01T00:55:37;21.80;94.90
60909;DHT22;46780;48.128;-1.704;2022-09-01T00:58:06;21.80;95.10
60909;DHT22;46780;48.128;-1.704;2022-09-01T01:00:36;21.70;95.10
60909;DHT22;46780;48.128;-1.704;2022-09-01T01:03:02;21.70;95.00
60909;DHT22;46780;48.128;-1.704;2022-09-01T01:05:32;21.70;95.00
60909;DHT22;46780;48.128;-1.704;2022-09-01T01:08:01;21.70;94.80
60909;DHT22;46780;48.128;-1.704;2022-09-01T01:10:30;21.70;94.80
60909;DHT22;46780;48.128;-1.704;2022-09-01T01:12:59;21.60;94.80
60909;DHT22;46780;48.128;-1.704;2022-09-01T01:15:25;21.50;94.80
60909;DHT22;46780;48.128;-1.704;2022-09-01T01:17:52;21.50;95.00
60909;DHT22;46780;48.128;-1.704;2022-09-01T01:20:19;21.50;94.90
60909;DHT22;46780;48.128;-1.704;2022-09-01T01:22:52;21.50;94.70
60909;DHT22;46780;48.128;-1.704;2022-09-01T01:25:22;21.50;94.80
60909;DHT22;46780;48.128;-1.704;2022-09-01T01:27:49;21.40;94.60
60909;DHT22;46780;48.128;-1.704;2022-09-01T01:30:16;21.40;94.40
60909;DHT22;46780;48.128;-1.704;2022-09-01T01:32:44;21.40;94.40
60909;DHT22;46780;48.128;-1.704;2022-09-01T01:35:12;21.40;94.50
60909;DHT22;46780;48.128;-1.704;2022-09-01T01:37:39;21.40;94.50
60909;DHT22;46780;48.128;-1.704;2022-09-01T01:40:06;21.40;94.40
60909;DHT22;46780;48.128;-1.704;2022-09-01T01:42:34;21.40;94.30
60909;DHT22;46780;48.128;-1.704;2022-09-01T01:45:01;21.40;94.10
60909;DHT22;46780;48.128;-1.704;2022-09-01T01:47:28;21.30;94.10
60909;DHT22;46780;48.128;-1.704;2022-09-01T01:49:54;21.30;93.80
60909;DHT22;46780;48.128;-1.704;2022-09-01T01:52:21;21.30;93.80
60909;DHT22;46780;48.128;-1.704;2022-09-01T01:54:47;21.30;93.60
60909;DHT22;46780;48.128;-1.704;2022-09-01T01:57:13;21.30;93.50
60909;DHT22;46780;48.128;-1.704;2022-09-01T01:59:41;21.30;93.50
60909;DHT22;46780;48.128;-1.704;2022-09-01T02:02:08;21.20;93.40
60909;DHT22;46780;48.128;-1.704;2022-09-01T02:04:35;21.20;93.20
60909;DHT22;46780;48.128;-1.704;2022-09-01T02:07:01;21.20;93.10
60909;DHT22;46780;48.128;-1.704;2022-09-01T02:09:28;21.20;93.00
60909;DHT22;46780;48.128;-1.704;2022-09-01T02:11:54;21.20;92.90
60909;DHT22;46780;48.128;-1.704;2022-09-01T02:14:21;21.20;92.70
60909;DHT22;46780;48.128;-1.704;2022-09-01T02:16:49;21.20;92.70
60909;DHT22;46780;48.128;-1.704;2022-09-01T02:19:16;21.10;92.60
60909;DHT22;46780;48.128;-1.704;2022-09-01T02:21:42;21.10;92.40
60909;DHT22;46780;48.128;-1.704;2022-09-01T02:24:09;21.10;92.30
60909;DHT22;46780;48.128;-1.704;2022-09-01T02:26:37;21.10;92.50
60909;DHT22;46780;48.128;-1.704;2022-09-01T02:29:06;21.10;92.40
60909;DHT22;46780;48.128;-1.704;2022-09-01T02:31:34;21.00;92.50
60909;DHT22;46780;48.128;-1.704;2022-09-01T02:34:02;21.00;92.50
60909;DHT22;46780;48.128;-1.704;2022-09-01T02:36:28;21.00;92.50
60909;DHT22;46780;48.128;-1.704;2022-09-01T02:38:55;21.00;92.60
60909;DHT22;46780;48.128;-1.704;2022-09-01T02:41:22;21.00;92.60
60909;DHT22;46780;48.128;-1.704;2022-09-01T02:43:49;21.00;92.50
60909;DHT22;46780;48.128;-1.704;2022-09-01T02:46:16;21.00;92.40
60909;DHT22;46780;48.128;-1.704;2022-09-01T02:48:43;21.00;92.40
60909;DHT22;46780;48.128;-1.704;2022-09-01T02:51:13;20.90;92.30
60909;DHT22;46780;48.128;-1.704;2022-09-01T02:53:41;20.90;92.20
60909;DHT22;46780;48.128;-1.704;2022-09-01T02:56:09;21.00;92.10
60909;DHT22;46780;48.128;-1.704;2022-09-01T02:58:37;20.90;92.00
60909;DHT22;46780;48.128;-1.704;2022-09-01T03:01:04;20.90;91.90
60909;DHT22;46780;48.128;-1.704;2022-09-01T03:03:31;20.90;92.10
60909;DHT22;46780;48.128;-1.704;2022-09-01T03:05:59;20.80;92.00
60909;DHT22;46780;48.128;-1.704;2022-09-01T03:08:27;20.80;92.00
60909;DHT22;46780;48.128;-1.704;2022-09-01T03:10:54;20.80;92.00
60909;DHT22;46780;48.128;-1.704;2022-09-01T03:13:22;20.80;92.00
60909;DHT22;46780;48.128;-1.704;2022-09-01T03:15:49;20.80;92.00
60909;DHT22;46780;48.128;-1.704;2022-09-01T03:18:16;20.80;92.00
60909;DHT22;46780;48.128;-1.704;2022-09-01T03:20:44;20.80;92.00
60909;DHT22;46780;48.128;-1.704;2022-09-01T03:23:12;20.80;92.10
60909;DHT22;46780;48.128;-1.704;2022-09-01T03:25:42;20.80;92.00
60909;DHT22;46780;48.128;-1.704;2022-09-01T03:28:10;20.80;92.00
60909;DHT22;46780;48.128;-1.704;2022-09-01T03:30:37;20.80;91.90
60909;DHT22;46780;48.128;-1.704;2022-09-01T03:33:05;20.80;91.90
60909;DHT22;46780;48.128;-1.704;2022-09-01T03:35:32;20.70;91.80
60909;DHT22;46780;48.128;-1.704;2022-09-01T03:38:00;20.70;91.80
60909;DHT22;46780;48.128;-1.704;2022-09-01T03:40:29;20.70;91.70
60909;DHT22;46780;48.128;-1.704;2022-09-01T03:42:57;20.70;91.60
60909;DHT22;46780;48.128;-1.704;2022-09-01T03:45:24;20.70;91.50
60909;DHT22;46780;48.128;-1.704;2022-09-01T03:47:51;20.70;91.60
60909;DHT22;46780;48.128;-1.704;2022-09-01T03:50:19;20.60;91.70
60909;DHT22;46780;48.128;-1.704;2022-09-01T03:52:46;20.60;91.60
60909;DHT22;46780;48.128;-1.704;2022-09-01T03:55:13;20.60;91.70
60909;DHT22;46780;48.128;-1.704;2022-09-01T03:57:39;20.60;91.70
60909;DHT22;46780;48.128;-1.704;2022-09-01T04:00:08;20.60;91.60
60909;DHT22;46780;48.128;-1.704;2022-09-01T04:02:35;20.50;91.70
60909;DHT22;46780;48.128;-1.704;2022-09-01T04:05:01;20.50;91.80
60909;DHT22;46780;48.128;-1.704;2022-09-01T04:07:28;20.60;92.00
60909;DHT22;46780;48.128;-1.704;2022-09-01T04:09:54;20.50;92.00
60909;DHT22;46780;48.128;-1.704;2022-09-01T04:12:21;20.50;91.90
60909;DHT22;46780;48.128;-1.704;2022-09-01T04:14:47;20.50;91.90
60909;DHT22;46780;48.128;-1.704;2022-09-01T04:17:15;20.50;91.90
60909;DHT22;46780;48.128;-1.704;2022-09-01T04:19:42;20.50;91.90
60909;DHT22;46780;48.128;-1.704;2022-09-01T04:22:08;20.40;92.00
60909;DHT22;46780;48.128;-1.704;2022-09-01T04:24:35;20.40;92.00
60909;DHT22;46780;48.128;-1.704;2022-09-01T04:27:02;20.40;91.90
60909;DHT22;46780;48.128;-1.704;2022-09-01T04:29:29;20.40;92.00
60909;DHT22;46780;48.128;-1.704;2022-09-01T04:31:58;20.30;92.10
60909;DHT22;46780;48.128;-1.704;2022-09-01T04:34:26;20.40;92.00
60909;DHT22;46780;48.128;-1.704;2022-09-01T04:36:53;20.40;92.00
60909;DHT22;46780;48.128;-1.704;2022-09-01T04:39:21;20.30;92.10
60909;DHT22;46780;48.128;-1.704;2022-09-01T04:41:47;20.30;92.10
60909;DHT22;46780;48.128;-1.704;2022-09-01T04:44:14;20.30;92.20
60909;DHT22;46780;48.128;-1.704;2022-09-01T04:46:41;20.30;92.20
60909;DHT22;46780;48.128;-1.704;2022-09-01T04:49:09;20.30;92.30
60909;DHT22;46780;48.128;-1.704;2022-09-01T04:51:39;20.20;92.20
60909;DHT22;46780;48.128;-1.704;2022-09-01T04:54:06;20.20;92.60
60909;DHT22;46780;48.128;-1.704;2022-09-01T04:56:33;20.20;92.20
60909;DHT22;46780;48.128;-1.704;2022-09-01T04:59:00;20.20;92.50
60909;DHT22;46780;48.128;-1.704;2022-09-01T05:01:27;20.30;92.30
60909;DHT22;46780;48.128;-1.704;2022-09-01T05:03:53;20.20;92.30
60909;DHT22;46780;48.128;-1.704;2022-09-01T05:06:20;20.20;92.40
60909;DHT22;46780;48.128;-1.704;2022-09-01T05:08:49;20.20;92.50
60909;DHT22;46780;48.128;-1.704;2022-09-01T05:11:16;20.20;92.30
60909;DHT22;46780;48.128;-1.704;2022-09-01T05:13:43;20.20;92.20
60909;DHT22;46780;48.128;-1.704;2022-09-01T05:16:10;20.20;92.10
60909;DHT22;46780;48.128;-1.704;2022-09-01T05:18:38;20.20;92.00
60909;DHT22;46780;48.128;-1.704;2022-09-01T05:21:06;20.20;92.00
60909;DHT22;46780;48.128;-1.704;2022-09-01T05:23:33;20.20;92.00
60909;DHT22;46780;48.128;-1.704;2022-09-01T05:26:01;20.20;92.00
60909;DHT22;46780;48.128;-1.704;2022-09-01T05:28:28;20.20;92.10
60909;DHT22;46780;48.128;-1.704;2022-09-01T05:30:54;20.20;92.20
60909;DHT22;46780;48.128;-1.704;2022-09-01T05:33:21;20.20;92.20
60909;DHT22;46780;48.128;-1.704;2022-09-01T05:35:52;20.20;92.20
60909;DHT22;46780;48.128;-1.704;2022-09-01T05:38:19;20.20;92.30
60909;DHT22;46780;48.128;-1.704;2022-09-01T05:40:54;20.20;92.20
60909;DHT22;46780;48.128;-1.704;2022-09-01T05:43:23;20.30;92.20
60909;DHT22;46780;48.128;-1.704;2022-09-01T05:45:49;20.30;92.10
60909;DHT22;46780;48.128;-1.704;2022-09-01T05:48:16;20.30;91.90
60909;DHT22;46780;48.128;-1.704;2022-09-01T05:50:43;20.30;91.90
60909;DHT22;46780;48.128;-1.704;2022-09-01T05:53:10;20.30;92.00
60909;DHT22;46780;48.128;-1.704;2022-09-01T05:55:36;20.30;92.10
60909;DHT22;46780;48.128;-1.704;2022-09-01T05:58:03;20.40;91.90
60909;DHT22;46780;48.128;-1.704;2022-09-01T06:00:31;20.30;91.70
60909;DHT22;46780;48.128;-1.704;2022-09-01T06:02:57;20.40;91.70
60909;DHT22;46780;48.128;-1.704;2022-09-01T06:05:24;20.40;91.70
60909;DHT22;46780;48.128;-1.704;2022-09-01T06:07:50;20.40;91.60
60909;DHT22;46780;48.128;-1.704;2022-09-01T06:10:17;20.50;91.60
60909;DHT22;46780;48.128;-1.704;2022-09-01T06:12:43;20.50;91.50
60909;DHT22;46780;48.128;-1.704;2022-09-01T06:15:10;20.50;91.60
60909;DHT22;46780;48.128;-1.704;2022-09-01T06:17:38;20.60;91.40
60909;DHT22;46780;48.128;-1.704;2022-09-01T06:20:05;20.60;91.30
60909;DHT22;46780;48.128;-1.704;2022-09-01T06:22:33;20.60;91.20
60909;DHT22;46780;48.128;-1.704;2022-09-01T06:24:59;20.60;91.50
60909;DHT22;46780;48.128;-1.704;2022-09-01T06:27:26;20.70;91.10
60909;DHT22;46780;48.128;-1.704;2022-09-01T06:29:52;20.70;91.20
60909;DHT22;46780;48.128;-1.704;2022-09-01T06:32:19;20.80;91.20
60909;DHT22;46780;48.128;-1.704;2022-09-01T06:34:47;20.80;91.10
60909;DHT22;46780;48.128;-1.704;2022-09-01T06:37:13;20.90;91.50
60909;DHT22;46780;48.128;-1.704;2022-09-01T06:39:40;20.90;91.00
60909;DHT22;46780;48.128;-1.704;2022-09-01T06:42:06;21.00;91.00
60909;DHT22;46780;48.128;-1.704;2022-09-01T06:44:33;21.00;90.90
60909;DHT22;46780;48.128;-1.704;2022-09-01T06:46:59;21.10;90.70
60909;DHT22;46780;48.128;-1.704;2022-09-01T06:49:26;21.10;90.60
60909;DHT22;46780;48.128;-1.704;2022-09-01T06:51:54;21.20;90.50
60909;DHT22;46780;48.128;-1.704;2022-09-01T06:54:20;21.20;90.50
60909;DHT22;46780;48.128;-1.704;2022-09-01T06:56:47;21.30;90.40
60909;DHT22;46780;48.128;-1.704;2022-09-01T06:59:13;21.30;90.10
60909;DHT22;46780;48.128;-1.704;2022-09-01T07:01:40;21.30;90.10
60909;DHT22;46780;48.128;-1.704;2022-09-01T07:04:07;21.30;90.00
60909;DHT22;46780;48.128;-1.704;2022-09-01T07:06:33;21.30;89.90
60909;DHT22;46780;48.128;-1.704;2022-09-01T07:09:01;21.40;89.90
60909;DHT22;46780;48.128;-1.704;2022-09-01T07:11:30;21.30;89.90
60909;DHT22;46780;48.128;-1.704;2022-09-01T07:13:59;21.30;89.80
60909;DHT22;46780;48.128;-1.704;2022-09-01T07:16:27;21.40;89.80
60909;DHT22;46780;48.128;-1.704;2022-09-01T07:18:55;21.30;89.20
60909;DHT22;46780;48.128;-1.704;2022-09-01T07:21:22;21.40;89.00
60909;DHT22;46780;48.128;-1.704;2022-09-01T07:23:48;21.40;88.50
60909;DHT22;46780;48.128;-1.704;2022-09-01T07:26:17;21.40;88.50
60909;DHT22;46780;48.128;-1.704;2022-09-01T07:28:44;21.40;88.60
60909;DHT22;46780;48.128;-1.704;2022-09-01T07:31:17;21.40;88.20
60909;DHT22;46780;48.128;-1.704;2022-09-01T07:33:44;21.40;88.00
60909;DHT22;46780;48.128;-1.704;2022-09-01T07:36:10;21.40;88.00
60909;DHT22;46780;48.128;-1.704;2022-09-01T07:38:36;21.40;88.40
60909;DHT22;46780;48.128;-1.704;2022-09-01T07:41:03;21.40;88.50
60909;DHT22;46780;48.128;-1.704;2022-09-01T07:43:31;21.40;88.60
60909;DHT22;46780;48.128;-1.704;2022-09-01T07:45:58;21.50;88.60
60909;DHT22;46780;48.128;-1.704;2022-09-01T07:48:26;21.50;88.50
60909;DHT22;46780;48.128;-1.704;2022-09-01T07:50:54;21.50;88.20
60909;DHT22;46780;48.128;-1.704;2022-09-01T07:53:23;21.40;88.10
60909;DHT22;46780;48.128;-1.704;2022-09-01T07:55:51;21.50;88.10
60909;DHT22;46780;48.128;-1.704;2022-09-01T07:58:19;21.50;88.00
60909;DHT22;46780;48.128;-1.704;2022-09-01T08:00:48;21.50;87.90
60909;DHT22;46780;48.128;-1.704;2022-09-01T08:03:17;21.50;87.70
60909;DHT22;46780;48.128;-1.704;2022-09-01T08:05:44;21.60;87.60
60909;DHT22;46780;48.128;-1.704;2022-09-01T08:08:10;21.60;87.30
60909;DHT22;46780;48.128;-1.704;2022-09-01T08:10:38;21.50;87.30
60909;DHT22;46780;48.128;-1.704;2022-09-01T08:13:05;21.50;87.30
60909;DHT22;46780;48.128;-1.704;2022-09-01T08:15:31;21.60;87.30
60909;DHT22;46780;48.128;-1.704;2022-09-01T08:18:00;21.50;87.20
60909;DHT22;46780;48.128;-1.704;2022-09-01T08:20:26;21.50;87.30
60909;DHT22;46780;48.128;-1.704;2022-09-01T08:22:53;21.50;87.30
60909;DHT22;46780;48.128;-1.704;2022-09-01T08:25:19;21.50;87.80
60909;DHT22;46780;48.128;-1.704;2022-09-01T08:27:46;21.50;87.80
60909;DHT22;46780;48.128;-1.704;2022-09-01T08:30:13;21.50;87.70
60909;DHT22;46780;48.128;-1.704;2022-09-01T08:32:40;21.50;88.00
60909;DHT22;46780;48.128;-1.704;2022-09-01T08:35:09;21.50;88.10
60909;DHT22;46780;48.128;-1.704;2022-09-01T08:37:36;21.50;88.00
60909;DHT22;46780;48.128;-1.704;2022-09-01T08:40:03;21.50;88.00
60909;DHT22;46780;48.128;-1.704;2022-09-01T08:42:43;21.50;88.30
60909;DHT22;46780;48.128;-1.704;2022-09-01T08:45:17;21.60;88.60
60909;DHT22;46780;48.128;-1.704;2022-09-01T08:47:45;21.60;88.30
60909;DHT22;46780;48.128;-1.704;2022-09-01T08:50:14;21.60;88.60
60909;DHT22;46780;48.128;-1.704;2022-09-01T08:52:43;21.70;88.90
60909;DHT22;46780;48.128;-1.704;2022-09-01T08:55:17;21.80;89.00
60909;DHT22;46780;48.128;-1.704;2022-09-01T08:57:45;21.80;89.00
60909;DHT22;46780;48.128;-1.704;2022-09-01T09:00:13;21.90;88.80
60909;DHT22;46780;48.128;-1.704;2022-09-01T09:02:52;21.90;88.50
60909;DHT22;46780;48.128;-1.704;2022-09-01T09:05:30;21.90;88.10
60909;DHT22;46780;48.128;-1.704;2022-09-01T09:10:54;21.90;88.00
60909;DHT22;46780;48.128;-1.704;2022-09-01T09:13:31;22.00;88.00
60909;DHT22;46780;48.128;-1.704;2022-09-01T09:16:05;22.00;87.80
60909;DHT22;46780;48.128;-1.704;2022-09-01T09:18:37;22.00;88.00
60909;DHT22;46780;48.128;-1.704;2022-09-01T09:21:12;22.10;88.00
60909;DHT22;46780;48.128;-1.704;2022-09-01T09:23:42;22.10;87.80
60909;DHT22;46780;48.128;-1.704;2022-09-01T09:26:10;22.20;87.50
60909;DHT22;46780;48.128;-1.704;2022-09-01T09:28:37;22.20;87.30
60909;DHT22;46780;48.128;-1.704;2022-09-01T09:31:26;22.30;87.00
60909;DHT22;46780;48.128;-1.704;2022-09-01T09:33:53;22.30;86.50
60909;DHT22;46780;48.128;-1.704;2022-09-01T09:36:23;22.40;87.20
60909;DHT22;46780;48.128;-1.704;2022-09-01T09:39:08;22.50;87.70
60909;DHT22;46780;48.128;-1.704;2022-09-01T09:41:35;22.60;87.00
60909;DHT22;46780;48.128;-1.704;2022-09-01T09:44:05;22.70;87.00
60909;DHT22;46780;48.128;-1.704;2022-09-01T09:46:37;22.80;86.50
60909;DHT22;46780;48.128;-1.704;2022-09-01T09:49:15;22.90;86.00
60909;DHT22;46780;48.128;-1.704;2022-09-01T09:51:45;23.00;86.00
60909;DHT22;46780;48.128;-1.704;2022-09-01T09:54:17;23.00;85.20
60909;DHT22;46780;48.128;-1.704;2022-09-01T09:56:44;23.10;85.10
60909;DHT22;46780;48.128;-1.704;2022-09-01T09:59:22;23.10;85.30
60909;DHT22;46780;48.128;-1.704;2022-09-01T10:01:49;23.20;84.80
60909;DHT22;46780;48.128;-1.704;2022-09-01T10:04:33;23.30;84.30
60909;DHT22;46780;48.128;-1.704;2022-09-01T10:07:01;23.30;84.70
60909;DHT22;46780;48.128;-1.704;2022-09-01T10:09:48;23.30;83.60
60909;DHT22;46780;48.128;-1.704;2022-09-01T10:12:15;23.30;83.20
60909;DHT22;46780;48.128;-1.704;2022-09-01T10:14:45;23.30;83.20
60909;DHT22;46780;48.128;-1.704;2022-09-01T10:17:16;23.40;82.70
60909;DHT22;46780;48.128;-1.704;2022-09-01T10:19:50;23.60;82.70
60909;DHT22;46780;48.128;-1.704;2022-09-01T10:22:19;23.70;82.20
60909;DHT22;46780;48.128;-1.704;2022-09-01T10:24:46;23.90;82.00
60909;DHT22;46780;48.128;-1.704;2022-09-01T10:27:18;24.10;80.80
60909;DHT22;46780;48.128;-1.704;2022-09-01T10:29:48;24.20;80.00
60909;DHT22;46780;48.128;-1.704;2022-09-01T10:32:17;24.40;79.30
60909;DHT22;46780;48.128;-1.704;2022-09-01T10:34:45;24.40;77.90
60909;DHT22;46780;48.128;-1.704;2022-09-01T10:37:13;24.30;78.60
60909;DHT22;46780;48.128;-1.704;2022-09-01T10:40:12;24.30;78.20
60909;DHT22;46780;48.128;-1.704;2022-09-01T10:42:40;24.30;77.70
60909;DHT22;46780;48.128;-1.704;2022-09-01T10:45:17;24.20;77.50
60909;DHT22;46780;48.128;-1.704;2022-09-01T10:47:44;24.20;77.20
60909;DHT22;46780;48.128;-1.704;2022-09-01T10:50:24;24.10;77.50
60909;DHT22;46780;48.128;-1.704;2022-09-01T10:52:54;24.10;77.50
60909;DHT22;46780;48.128;-1.704;2022-09-01T10:55:25;24.00;77.30
60909;DHT22;46780;48.128;-1.704;2022-09-01T10:58:03;24.00;77.50
60909;DHT22;46780;48.128;-1.704;2022-09-01T11:00:50;24.00;78.20
60909;DHT22;46780;48.128;-1.704;2022-09-01T11:06:57;23.90;78.50
60909;DHT22;46780;48.128;-1.704;2022-09-01T11:09:26;23.90;78.70
60909;DHT22;46780;48.128;-1.704;2022-09-01T11:14:58;23.90;78.70
60909;DHT22;46780;48.128;-1.704;2022-09-01T11:17:26;23.90;78.80
60909;DHT22;46780;48.128;-1.704;2022-09-01T11:19:59;23.90;78.50
60909;DHT22;46780;48.128;-1.704;2022-09-01T11:22:33;23.90;78.70
60909;DHT22;46780;48.128;-1.704;2022-09-01T11:25:32;24.00;78.40
60909;DHT22;46780;48.128;-1.704;2022-09-01T11:28:08;24.00;78.20
60909;DHT22;46780;48.128;-1.704;2022-09-01T11:30:42;24.00;78.20
60909;DHT22;46780;48.128;-1.704;2022-09-01T11:33:25;24.00;78.20
60909;DHT22;46780;48.128;-1.704;2022-09-01T11:35:59;24.00;78.40
60909;DHT22;46780;48.128;-1.704;2022-09-01T11:38:27;24.00;78.40
60909;DHT22;46780;48.128;-1.704;2022-09-01T11:40:55;24.00;78.50
60909;DHT22;46780;48.128;-1.704;2022-09-01T11:43:24;24.10;78.40
60909;DHT22;46780;48.128;-1.704;2022-09-01T11:45:58;24.10;78.40
60909;DHT22;46780;48.128;-1.704;2022-09-01T11:48:27;24.20;78.50
60909;DHT22;46780;48.128;-1.704;2022-09-01T11:50:57;24.30;78.90
60909;DHT22;46780;48.128;-1.704;2022-09-01T11:53:24;24.50;78.80
60909;DHT22;46780;48.128;-1.704;2022-09-01T11:55:52;24.70;78.70
60909;DHT22;46780;48.128;-1.704;2022-09-01T11:58:31;25.00;78.70
60909;DHT22;46780;48.128;-1.704;2022-09-01T12:01:12;25.50;78.10
60909;DHT22;46780;48.128;-1.704;2022-09-01T12:03:38;25.80;75.80
60909;DHT22;46780;48.128;-1.704;2022-09-01T12:06:07;25.90;73.30
60909;DHT22;46780;48.128;-1.704;2022-09-01T12:08:36;26.00;71.70
60909;DHT22;46780;48.128;-1.704;2022-09-01T12:11:05;26.10;70.60
60909;DHT22;46780;48.128;-1.704;2022-09-01T12:13:35;26.10;70.20
60909;DHT22;46780;48.128;-1.704;2022-09-01T12:16:04;26.30;69.30
60909;DHT22;46780;48.128;-1.704;2022-09-01T12:18:33;26.40;68.50
60909;DHT22;46780;48.128;-1.704;2022-09-01T12:21:03;26.60;68.50
60909;DHT22;46780;48.128;-1.704;2022-09-01T12:23:32;26.90;66.50
60909;DHT22;46780;48.128;-1.704;2022-09-01T12:26:00;27.00;66.40
60909;DHT22;46780;48.128;-1.704;2022-09-01T12:28:29;27.10;65.90
60909;DHT22;46780;48.128;-1.704;2022-09-01T12:30:58;27.00;65.70
60909;DHT22;46780;48.128;-1.704;2022-09-01T12:33:26;26.90;64.90
60909;DHT22;46780;48.128;-1.704;2022-09-01T12:36:21;26.70;64.90
60909;DHT22;46780;48.128;-1.704;2022-09-01T12:38:48;26.60;65.10
60909;DHT22;46780;48.128;-1.704;2022-09-01T12:41:33;26.50;65.30
60909;DHT22;46780;48.128;-1.704;2022-09-01T12:44:31;26.40;65.80
60909;DHT22;46780;48.128;-1.704;2022-09-01T12:47:01;26.30;66.50
60909;DHT22;46780;48.128;-1.704;2022-09-01T12:49:37;26.20;66.50
60909;DHT22;46780;48.128;-1.704;2022-09-01T12:52:11;26.30;66.90
60909;DHT22;46780;48.128;-1.704;2022-09-01T12:54:39;26.30;66.60
60909;DHT22;46780;48.128;-1.704;2022-09-01T12:57:06;26.40;66.80
60909;DHT22;46780;48.128;-1.704;2022-09-01T12:59:32;26.40;66.70
60909;DHT22;46780;48.128;-1.704;2022-09-01T13:02:27;26.30;66.70
60909;DHT22;46780;48.128;-1.704;2022-09-01T13:05:23;26.30;66.00
60909;DHT22;46780;48.128;-1.704;2022-09-01T13:07:52;26.10;64.40
60909;DHT22;46780;48.128;-1.704;2022-09-01T13:10:19;26.00;63.80
60909;DHT22;46780;48.128;-1.704;2022-09-01T13:12:46;25.90;63.10
60909;DHT22;46780;48.128;-1.704;2022-09-01T13:15:12;25.90;63.10
60909;DHT22;46780;48.128;-1.704;2022-09-01T13:17:40;25.80;63.90
60909;DHT22;46780;48.128;-1.704;2022-09-01T13:20:07;25.70;62.50
60909;DHT22;46780;48.128;-1.704;2022-09-01T13:22:35;25.60;62.90
60909;DHT22;46780;48.128;-1.704;2022-09-01T13:25:02;25.60;63.50
60909;DHT22;46780;48.128;-1.704;2022-09-01T13:27:28;25.60;63.50
60909;DHT22;46780;48.128;-1.704;2022-09-01T13:29:55;25.70;64.00
60909;DHT22;46780;48.128;-1.704;2022-09-01T13:32:22;26.00;64.60
60909;DHT22;46780;48.128;-1.704;2022-09-01T13:34:51;26.50;64.40
60909;DHT22;46780;48.128;-1.704;2022-09-01T13:37:18;27.10;62.70
60909;DHT22;46780;48.128;-1.704;2022-09-01T13:39:45;27.50;60.60
60909;DHT22;46780;48.128;-1.704;2022-09-01T13:42:12;27.80;58.20
60909;DHT22;46780;48.128;-1.704;2022-09-01T13:44:38;27.80;57.10
60909;DHT22;46780;48.128;-1.704;2022-09-01T13:47:05;27.80;56.90
60909;DHT22;46780;48.128;-1.704;2022-09-01T13:49:32;27.80;56.70
60909;DHT22;46780;48.128;-1.704;2022-09-01T13:52:00;27.80;56.80
60909;DHT22;46780;48.128;-1.704;2022-09-01T13:54:26;27.70;56.50
60909;DHT22;46780;48.128;-1.704;2022-09-01T13:56:53;27.70;56.20
60909;DHT22;46780;48.128;-1.704;2022-09-01T13:59:19;27.70;55.70
60909;DHT22;46780;48.128;-1.704;2022-09-01T14:01:46;27.70;54.90
60909;DHT22;46780;48.128;-1.704;2022-09-01T14:04:13;27.60;54.90
60909;DHT22;46780;48.128;-1.704;2022-09-01T14:06:40;27.40;54.90
60909;DHT22;46780;48.128;-1.704;2022-09-01T14:09:08;27.20;55.30
60909;DHT22;46780;48.128;-1.704;2022-09-01T14:11:34;27.10;56.00
60909;DHT22;46780;48.128;-1.704;2022-09-01T14:14:01;26.90;56.70
60909;DHT22;46780;48.128;-1.704;2022-09-01T14:16:27;26.90;57.10
60909;DHT22;46780;48.128;-1.704;2022-09-01T14:18:54;26.80;57.90
60909;DHT22;46780;48.128;-1.704;2022-09-01T14:21:21;26.70;58.30
60909;DHT22;46780;48.128;-1.704;2022-09-01T14:23:47;26.60;58.60
60909;DHT22;46780;48.128;-1.704;2022-09-01T14:26:15;26.50;58.20
60909;DHT22;46780;48.128;-1.704;2022-09-01T14:28:44;26.40;58.00
60909;DHT22;46780;48.128;-1.704;2022-09-01T14:31:12;26.30;58.00
60909;DHT22;46780;48.128;-1.704;2022-09-01T14:33:39;26.20;58.60
60909;DHT22;46780;48.128;-1.704;2022-09-01T14:36:06;26.10;59.10
60909;DHT22;46780;48.128;-1.704;2022-09-01T14:38:33;26.00;60.00
60909;DHT22;46780;48.128;-1.704;2022-09-01T14:41:00;25.90;60.70
60909;DHT22;46780;48.128;-1.704;2022-09-01T14:43:28;25.80;62.10
60909;DHT22;46780;48.128;-1.704;2022-09-01T14:46:02;25.80;63.30
60909;DHT22;46780;48.128;-1.704;2022-09-01T14:48:29;25.70;64.20
60909;DHT22;46780;48.128;-1.704;2022-09-01T14:50:55;25.60;65.10
60909;DHT22;46780;48.128;-1.704;2022-09-01T14:53:22;25.60;65.80
60909;DHT22;46780;48.128;-1.704;2022-09-01T14:55:48;25.60;66.40
60909;DHT22;46780;48.128;-1.704;2022-09-01T14:58:15;25.50;66.70
60909;DHT22;46780;48.128;-1.704;2022-09-01T15:00:43;25.50;67.10
60909;DHT22;46780;48.128;-1.704;2022-09-01T15:03:10;25.50;67.20
60909;DHT22;46780;48.128;-1.704;2022-09-01T15:05:37;25.40;67.20
60909;DHT22;46780;48.128;-1.704;2022-09-01T15:08:03;25.40;67.40
60909;DHT22;46780;48.128;-1.704;2022-09-01T15:10:30;25.40;68.50
60909;DHT22;46780;48.128;-1.704;2022-09-01T15:12:58;25.30;67.70
60909;DHT22;46780;48.128;-1.704;2022-09-01T15:15:26;25.30;67.90
60909;DHT22;46780;48.128;-1.704;2022-09-01T15:17:55;25.30;67.90
60909;DHT22;46780;48.128;-1.704;2022-09-01T15:20:22;25.30;68.30
60909;DHT22;46780;48.128;-1.704;2022-09-01T15:22:49;25.30;68.70
60909;DHT22;46780;48.128;-1.704;2022-09-01T15:25:16;25.20;69.40
60909;DHT22;46780;48.128;-1.704;2022-09-01T15:27:43;25.20;70.00
60909;DHT22;46780;48.128;-1.704;2022-09-01T15:30:11;25.20;71.00
60909;DHT22;46780;48.128;-1.704;2022-09-01T15:32:37;25.10;71.90
60909;DHT22;46780;48.128;-1.704;2022-09-01T15:35:06;25.00;73.20